sensor_id;sensor_type;location;lat;lon;timestamp;pressure;altitude;pressure_sealevel;temperature;humidity
53550;BME280;39438;53.076;-1.230;2023-01-06T00:01:22;100548.84;;;18.13;50.38
53550;BME280;39438;53.076;-1.230;2023-01-06T00:03:48;100551.81;;;18.12;50.16
53550;BME280;39438;53.076;-1.230;2023-01-06T00:06:15;100562.69;;;18.12;50.37
53550;BME280;39438;53.076;-1.230;2023-01-06T00:08:40;100560.19;;;18.10;50.35
53550;BME280;39438;53.076;-1.230;2023-01-06T00:11:07;100565.91;;;18.09;50.33
53550;BME280;39438;53.076;-1.230;2023-01-06T00:13:33;100567.53;;;18.10;50.24
53550;BME280;39438;53.076;-1.230;2023-01-06T00:16:03;100576.78;;;18.09;50.15
53550;BME280;39438;53.076;-1.230;2023-01-06T00:18:30;100581.38;;;18.08;50.30
53550;BME280;39438;53.076;-1.230;2023-01-06T00:20:57;100578.88;;;18.07;50.09
53550;BME280;39438;53.076;-1.230;2023-01-06T00:23:23;100587.31;;;18.05;50.26
53550;BME280;39438;53.076;-1.230;2023-01-06T00:25:48;100588.59;;;18.02;50.31
53550;BME280;39438;53.076;-1.230;2023-01-06T00:28:14;100582.31;;;18.02;50.26
53550;BME280;39438;53.076;-1.230;2023-01-06T00:30:40;100608.69;;;18.01;50.17
53550;BME280;39438;53.076;-1.230;2023-01-06T00:33:06;100596.97;;;18.01;50.12
53550;BME280;39438;53.076;-1.230;2023-01-06T00:35:33;100597.19;;;17.99;50.18
53550;BME280;39438;53.076;-1.230;2023-01-06T00:37:59;100592.84;;;17.98;50.17
53550;BME280;39438;53.076;-1.230;2023-01-06T00:40:25;100593.91;;;17.97;50.10
53550;BME280;39438;53.076;-1.230;2023-01-06T00:42:50;100584.94;;;17.97;50.09
53550;BME280;39438;53.076;-1.230;2023-01-06T00:45:16;100588.69;;;17.96;50.01
53550;BME280;39438;53.076;-1.230;2023-01-06T00:47:42;100602.28;;;17.96;49.97
53550;BME280;39438;53.076;-1.230;2023-01-06T00:50:08;100604.41;;;17.94;49.99
53550;BME280;39438;53.076;-1.230;2023-01-06T00:52:39;100593.78;;;17.92;49.92
53550;BME280;39438;53.076;-1.230;2023-01-06T00:55:05;100599.22;;;17.92;50.04
53550;BME280;39438;53.076;-1.230;2023-01-06T00:57:31;100597.56;;;17.91;50.22
53550;BME280;39438;53.076;-1.230;2023-01-06T00:59:57;100602.16;;;17.91;50.28
53550;BME280;39438;53.076;-1.230;2023-01-06T01:02:22;100612.22;;;17.90;49.94
53550;BME280;39438;53.076;-1.230;2023-01-06T01:04:48;100613.03;;;17.91;49.85
53550;BME280;39438;53.076;-1.230;2023-01-06T01:07:15;100604.06;;;17.90;49.80
53550;BME280;39438;53.076;-1.230;2023-01-06T01:09:42;100605.13;;;17.89;49.94
53550;BME280;39438;53.076;-1.230;2023-01-06T01:12:09;100619.78;;;17.88;50.03
53550;BME280;39438;53.076;-1.230;2023-01-06T01:14:35;100624.16;;;17.89;50.01
53550;BME280;39438;53.076;-1.230;2023-01-06T01:17:01;100619.78;;;17.88;50.00
53550;BME280;39438;53.076;-1.230;2023-01-06T01:19:28;100629.34;;;17.91;49.93
53550;BME280;39438;53.076;-1.230;2023-01-06T01:21:54;100622.28;;;17.90;49.86
53550;BME280;39438;53.076;-1.230;2023-01-06T01:24:20;100620.59;;;17.89;50.00
53550;BME280;39438;53.076;-1.230;2023-01-06T01:26:47;100611.84;;;17.86;49.96
53550;BME280;39438;53.076;-1.230;2023-01-06T01:29:15;100609.34;;;17.85;49.82
53550;BME280;39438;53.076;-1.230;2023-01-06T01:31:41;100603.09;;;17.84;50.04
53550;BME280;39438;53.076;-1.230;2023-01-06T01:34:08;100604.41;;;17.82;49.78
53550;BME280;39438;53.076;-1.230;2023-01-06T01:36:35;100612.56;;;17.82;49.82
53550;BME280;39438;53.076;-1.230;2023-01-06T01:39:00;100604.41;;;17.82;49.92
53550;BME280;39438;53.076;-1.230;2023-01-06T01:41:28;100601.91;;;17.80;49.75
53550;BME280;39438;53.076;-1.230;2023-01-06T01:43:57;100613.59;;;17.81;49.81
53550;BME280;39438;53.076;-1.230;2023-01-06T01:46:26;100615.28;;;17.82;49.99
53550;BME280;39438;53.076;-1.230;2023-01-06T01:48:55;100609.84;;;17.82;49.75
53550;BME280;39438;53.076;-1.230;2023-01-06T01:51:32;100614.41;;;17.81;49.97
53550;BME280;39438;53.076;-1.230;2023-01-06T01:54:04;100617.72;;;17.83;49.73
53550;BME280;39438;53.076;-1.230;2023-01-06T01:56:33;100627.78;;;17.83;49.85
53550;BME280;39438;53.076;-1.230;2023-01-06T01:59:06;100633.22;;;17.83;49.68
53550;BME280;39438;53.076;-1.230;2023-01-06T02:01:33;100636.16;;;17.81;49.63
53550;BME280;39438;53.076;-1.230;2023-01-06T02:04:00;100640.78;;;17.81;49.66
53550;BME280;39438;53.076;-1.230;2023-01-06T02:06:28;100639.72;;;17.82;49.61
53550;BME280;39438;53.076;-1.230;2023-01-06T02:08:59;100637.00;;;17.82;49.58
53550;BME280;39438;53.076;-1.230;2023-01-06T02:11:31;100642.91;;;17.79;49.74
53550;BME280;39438;53.076;-1.230;2023-01-06T02:14:02;100635.81;;;17.78;49.57
53550;BME280;39438;53.076;-1.230;2023-01-06T02:16:41;100641.22;;;17.78;49.58
53550;BME280;39438;53.076;-1.230;2023-01-06T02:19:24;100650.47;;;17.77;49.79
53550;BME280;39438;53.076;-1.230;2023-01-06T02:22:08;100650.47;;;17.77;49.59
53550;BME280;39438;53.076;-1.230;2023-01-06T02:25:02;100652.09;;;17.78;49.58
53550;BME280;39438;53.076;-1.230;2023-01-06T02:30:45;100660.13;;;17.73;49.74
53550;BME280;39438;53.076;-1.230;2023-01-06T02:33:24;100668.03;;;17.74;49.65
53550;BME280;39438;53.076;-1.230;2023-01-06T02:36:10;100667.22;;;17.74;49.74
53550;BME280;39438;53.076;-1.230;2023-01-06T02:38:53;100676.44;;;17.73;49.57
53550;BME280;39438;53.076;-1.230;2023-01-06T02:41:30;100676.44;;;17.73;49.61
53550;BME280;39438;53.076;-1.230;2023-01-06T02:44:01;100671.00;;;17.73;49.65
53550;BME280;39438;53.076;-1.230;2023-01-06T02:46:51;100683.16;;;17.70;49.64
53550;BME280;39438;53.076;-1.230;2023-01-06T02:49:28;100694.84;;;17.71;49.61
53550;BME280;39438;53.076;-1.230;2023-01-06T02:51:58;100701.13;;;17.71;49.58
53550;BME280;39438;53.076;-1.230;2023-01-06T02:54:34;100694.25;;;17.68;49.51
53550;BME280;39438;53.076;-1.230;2023-01-06T02:57:11;100698.03;;;17.67;49.52
53550;BME280;39438;53.076;-1.230;2023-01-06T02:59:46;100694.72;;;17.65;49.67
53550;BME280;39438;53.076;-1.230;2023-01-06T03:02:16;100700.53;;;17.69;49.57
53550;BME280;39438;53.076;-1.230;2023-01-06T03:04:45;100699.09;;;17.66;49.69
53550;BME280;39438;53.076;-1.230;2023-01-06T03:07:13;100704.53;;;17.66;49.41
53550;BME280;39438;53.076;-1.230;2023-01-06T03:09:40;100699.94;;;17.67;49.44
53550;BME280;39438;53.076;-1.230;2023-01-06T03:12:13;100704.53;;;17.66;49.42
53550;BME280;39438;53.076;-1.230;2023-01-06T03:14:45;100696.38;;;17.66;49.44
53550;BME280;39438;53.076;-1.230;2023-01-06T03:17:12;100706.66;;;17.64;49.33
53550;BME280;39438;53.076;-1.230;2023-01-06T03:19:39;100712.91;;;17.65;49.44
53550;BME280;39438;53.076;-1.230;2023-01-06T03:22:09;100711.25;;;17.64;49.35
53550;BME280;39438;53.076;-1.230;2023-01-06T03:24:37;100717.53;;;17.64;49.28
53550;BME280;39438;53.076;-1.230;2023-01-06T03:27:05;100727.81;;;17.62;49.24
53550;BME280;39438;53.076;-1.230;2023-01-06T03:29:33;100720.72;;;17.61;49.28
53550;BME280;39438;53.076;-1.230;2023-01-06T03:32:00;100726.13;;;17.61;49.54
53550;BME280;39438;53.076;-1.230;2023-01-06T03:34:50;100730.97;;;17.59;49.15
53550;BME280;39438;53.076;-1.230;2023-01-06T03:37:25;100728.03;;;17.61;49.42
53550;BME280;39438;53.076;-1.230;2023-01-06T03:39:59;100732.88;;;17.59;49.35
53550;BME280;39438;53.076;-1.230;2023-01-06T03:42:34;100729.53;;;17.57;49.26
53550;BME280;39438;53.076;-1.230;2023-01-06T03:45:34;100726.59;;;17.58;49.19
53550;BME280;39438;53.076;-1.230;2023-01-06T03:48:07;100733.69;;;17.59;49.17
53550;BME280;39438;53.076;-1.230;2023-01-06T03:50:41;100730.97;;;17.59;49.12
53550;BME280;39438;53.076;-1.230;2023-01-06T03:53:24;100731.56;;;17.61;49.16
53550;BME280;39438;53.076;-1.230;2023-01-06T03:55:59;100733.09;;;17.57;49.20
53550;BME280;39438;53.076;-1.230;2023-01-06T03:58:29;100731.81;;;17.60;49.23
53550;BME280;39438;53.076;-1.230;2023-01-06T04:00:57;100730.97;;;17.59;49.11
53550;BME280;39438;53.076;-1.230;2023-01-06T04:03:26;100727.44;;;17.59;49.32
53550;BME280;39438;53.076;-1.230;2023-01-06T04:05:54;100726.00;;;17.56;49.24
53550;BME280;39438;53.076;-1.230;2023-01-06T04:08:21;100737.94;;;17.55;49.36
53550;BME280;39438;53.076;-1.230;2023-01-06T04:10:48;100735.22;;;17.55;49.08
53550;BME280;39438;53.076;-1.230;2023-01-06T04:13:14;100735.22;;;17.55;49.30
53550;BME280;39438;53.076;-1.230;2023-01-06T04:15:39;100737.94;;;17.55;48.97
53550;BME280;39438;53.076;-1.230;2023-01-06T04:18:07;100742.16;;;17.51;48.98
53550;BME280;39438;53.076;-1.230;2023-01-06T04:20:36;100731.28;;;17.51;49.23
53550;BME280;39438;53.076;-1.230;2023-01-06T04:23:11;100736.50;;;17.53;49.29
53550;BME280;39438;53.076;-1.230;2023-01-06T04:25:40;100730.47;;;17.51;49.31
53550;BME280;39438;53.076;-1.230;2023-01-06T04:28:13;100732.38;;;17.50;49.05
53550;BME280;39438;53.076;-1.230;2023-01-06T04:30:39;100736.13;;;17.49;49.27
53550;BME280;39438;53.076;-1.230;2023-01-06T04:33:05;100735.31;;;17.48;49.30
53550;BME280;39438;53.076;-1.230;2023-01-06T04:35:31;100738.84;;;17.49;49.16
53550;BME280;39438;53.076;-1.230;2023-01-06T04:38:00;100744.50;;;17.47;49.19
53550;BME280;39438;53.076;-1.230;2023-01-06T04:40:25;100742.00;;;17.46;49.19
53550;BME280;39438;53.076;-1.230;2023-01-06T04:42:53;100749.13;;;17.47;49.25
53550;BME280;39438;53.076;-1.230;2023-01-06T04:45:31;100742.00;;;17.46;48.95
53550;BME280;39438;53.076;-1.230;2023-01-06T04:47:57;100748.53;;;17.45;49.19
53550;BME280;39438;53.076;-1.230;2023-01-06T04:50:22;100746.03;;;17.43;49.17
53550;BME280;39438;53.076;-1.230;2023-01-06T04:52:48;100746.84;;;17.44;49.16
53550;BME280;39438;53.076;-1.230;2023-01-06T04:55:14;100749.56;;;17.44;49.14
53550;BME280;39438;53.076;-1.230;2023-01-06T04:57:40;100748.75;;;17.43;49.15
53550;BME280;39438;53.076;-1.230;2023-01-06T05:00:09;100751.47;;;17.43;48.92
53550;BME280;39438;53.076;-1.230;2023-01-06T05:02:35;100746.25;;;17.42;49.14
53550;BME280;39438;53.076;-1.230;2023-01-06T05:05:00;100756.28;;;17.41;49.11
53550;BME280;39438;53.076;-1.230;2023-01-06T05:07:26;100766.31;;;17.41;49.21
53550;BME280;39438;53.076;-1.230;2023-01-06T05:09:52;100767.16;;;17.41;49.13
53550;BME280;39438;53.076;-1.230;2023-01-06T05:12:18;100759.22;;;17.40;49.14
53550;BME280;39438;53.076;-1.230;2023-01-06T05:14:43;100758.41;;;17.39;49.07
53550;BME280;39438;53.076;-1.230;2023-01-06T05:17:10;100769.28;;;17.39;49.07
53550;BME280;39438;53.076;-1.230;2023-01-06T05:19:36;100764.66;;;17.40;49.16
53550;BME280;39438;53.076;-1.230;2023-01-06T05:22:02;100775.53;;;17.40;49.16
53550;BME280;39438;53.076;-1.230;2023-01-06T05:24:27;100783.69;;;17.40;48.94
53550;BME280;39438;53.076;-1.230;2023-01-06T05:26:57;100782.00;;;17.39;49.06
53550;BME280;39438;53.076;-1.230;2023-01-06T05:29:23;100780.97;;;17.40;48.89
53550;BME280;39438;53.076;-1.230;2023-01-06T05:31:49;100777.66;;;17.38;48.88
53550;BME280;39438;53.076;-1.230;2023-01-06T05:34:16;100786.84;;;17.37;49.14
53550;BME280;39438;53.076;-1.230;2023-01-06T05:36:41;100783.09;;;17.38;49.00
53550;BME280;39438;53.076;-1.230;2023-01-06T05:39:11;100791.44;;;17.36;48.75
53550;BME280;39438;53.076;-1.230;2023-01-06T05:41:38;100789.78;;;17.35;49.27
53550;BME280;39438;53.076;-1.230;2023-01-06T05:44:04;100789.56;;;17.37;48.84
53550;BME280;39438;53.076;-1.230;2023-01-06T05:46:31;100794.38;;;17.35;48.94
53550;BME280;39438;53.076;-1.230;2023-01-06T05:48:58;100803.59;;;17.34;48.76
53550;BME280;39438;53.076;-1.230;2023-01-06T05:51:25;100797.56;;;17.32;48.93
53550;BME280;39438;53.076;-1.230;2023-01-06T05:53:54;100796.50;;;17.33;49.09
53550;BME280;39438;53.076;-1.230;2023-01-06T05:56:22;100792.13;;;17.32;49.10
53550;BME280;39438;53.076;-1.230;2023-01-06T05:58:50;100794.84;;;17.32;48.98
53550;BME280;39438;53.076;-1.230;2023-01-06T06:01:18;100795.44;;;17.34;48.83
53550;BME280;39438;53.076;-1.230;2023-01-06T06:03:46;100799.38;;;17.38;48.90
53550;BME280;39438;53.076;-1.230;2023-01-06T06:06:13;100796.81;;;17.43;48.50
53550;BME280;39438;53.076;-1.230;2023-01-06T06:08:40;100794.22;;;17.48;48.51
53550;BME280;39438;53.076;-1.230;2023-01-06T06:11:07;100785.38;;;17.53;48.28
53550;BME280;39438;53.076;-1.230;2023-01-06T06:13:33;100788.47;;;17.56;48.22
53550;BME280;39438;53.076;-1.230;2023-01-06T06:16:03;100788.63;;;17.61;48.30
53550;BME280;39438;53.076;-1.230;2023-01-06T06:18:29;100798.56;;;17.67;48.09
53550;BME280;39438;53.076;-1.230;2023-01-06T06:21:00;100793.91;;;17.75;48.04
53550;BME280;39438;53.076;-1.230;2023-01-06T06:23:28;100801.72;;;17.83;48.00
53550;BME280;39438;53.076;-1.230;2023-01-06T06:25:55;100795.41;;;17.89;47.85
53550;BME280;39438;53.076;-1.230;2023-01-06T06:28:21;100804.28;;;17.96;47.63
53550;BME280;39438;53.076;-1.230;2023-01-06T06:30:48;100794.97;;;18.04;47.56
53550;BME280;39438;53.076;-1.230;2023-01-06T06:33:15;100805.75;;;18.11;47.46
53550;BME280;39438;53.076;-1.230;2023-01-06T06:35:40;100806.13;;;18.14;47.20
53550;BME280;39438;53.076;-1.230;2023-01-06T06:38:06;100797.47;;;18.17;47.30
53550;BME280;39438;53.076;-1.230;2023-01-06T06:40:32;100797.88;;;18.21;47.29
53550;BME280;39438;53.076;-1.230;2023-01-06T06:42:59;100786.72;;;18.22;47.28
53550;BME280;39438;53.076;-1.230;2023-01-06T06:45:25;100780.59;;;18.27;47.25
53550;BME280;39438;53.076;-1.230;2023-01-06T06:47:53;100780.16;;;18.30;47.17
53550;BME280;39438;53.076;-1.230;2023-01-06T06:50:20;100780.16;;;18.30;47.05
53550;BME280;39438;53.076;-1.230;2023-01-06T06:52:46;100768.19;;;18.31;47.00
53550;BME280;39438;53.076;-1.230;2023-01-06T06:55:12;100771.75;;;18.32;47.06
53550;BME280;39438;53.076;-1.230;2023-01-06T06:57:39;100774.22;;;18.33;47.17
53550;BME280;39438;53.076;-1.230;2023-01-06T07:00:11;100779.66;;;18.33;46.98
53550;BME280;39438;53.076;-1.230;2023-01-06T07:02:40;100777.78;;;18.34;47.17
53550;BME280;39438;53.076;-1.230;2023-01-06T07:05:06;100782.13;;;18.35;47.14
53550;BME280;39438;53.076;-1.230;2023-01-06T07:07:32;100786.75;;;18.34;47.12
53550;BME280;39438;53.076;-1.230;2023-01-06T07:09:58;100786.75;;;18.34;47.06
53550;BME280;39438;53.076;-1.230;2023-01-06T07:12:26;100800.38;;;18.34;47.15
53550;BME280;39438;53.076;-1.230;2023-01-06T07:14:53;100804.13;;;18.33;47.18
53550;BME280;39438;53.076;-1.230;2023-01-06T07:17:25;100811.25;;;18.34;46.91
53550;BME280;39438;53.076;-1.230;2023-01-06T07:19:51;100801.41;;;18.33;47.07
53550;BME280;39438;53.076;-1.230;2023-01-06T07:22:17;100809.56;;;18.33;47.07
53550;BME280;39438;53.076;-1.230;2023-01-06T07:24:42;100809.56;;;18.33;47.11
53550;BME280;39438;53.076;-1.230;2023-01-06T07:27:08;100816.09;;;18.32;47.10
53550;BME280;39438;53.076;-1.230;2023-01-06T07:29:34;100816.09;;;18.32;46.99
53550;BME280;39438;53.076;-1.230;2023-01-06T07:31:59;100814.41;;;18.31;46.93
53550;BME280;39438;53.076;-1.230;2023-01-06T07:34:30;100818.00;;;18.32;47.05
53550;BME280;39438;53.076;-1.230;2023-01-06T07:36:57;100814.41;;;18.31;47.05
53550;BME280;39438;53.076;-1.230;2023-01-06T07:39:22;100819.03;;;18.31;47.16
53550;BME280;39438;53.076;-1.230;2023-01-06T07:41:48;100814.66;;;18.30;47.02
53550;BME280;39438;53.076;-1.230;2023-01-06T07:44:16;100815.50;;;18.30;47.04
53550;BME280;39438;53.076;-1.230;2023-01-06T07:46:43;100811.09;;;18.29;47.03
53550;BME280;39438;53.076;-1.230;2023-01-06T07:49:08;100815.72;;;18.29;47.09
53550;BME280;39438;53.076;-1.230;2023-01-06T07:51:35;100813.25;;;18.27;46.91
53550;BME280;39438;53.076;-1.230;2023-01-06T07:54:01;100819.72;;;18.26;46.98
53550;BME280;39438;53.076;-1.230;2023-01-06T07:56:27;100820.81;;;18.25;46.97
53550;BME280;39438;53.076;-1.230;2023-01-06T07:58:52;100824.34;;;18.26;46.85
53550;BME280;39438;53.076;-1.230;2023-01-06T08:01:19;100819.13;;;18.24;46.92
53550;BME280;39438;53.076;-1.230;2023-01-06T08:03:46;100807.44;;;18.23;47.10
53550;BME280;39438;53.076;-1.230;2023-01-06T08:06:12;100811.22;;;18.22;47.08
53550;BME280;39438;53.076;-1.230;2023-01-06T08:08:40;100808.75;;;18.21;47.05
53550;BME280;39438;53.076;-1.230;2023-01-06T08:11:09;100816.41;;;18.24;48.32
53550;BME280;39438;53.076;-1.230;2023-01-06T08:13:36;100815.38;;;18.25;49.07
53550;BME280;39438;53.076;-1.230;2023-01-06T08:16:06;100827.44;;;18.29;48.93
53550;BME280;39438;53.076;-1.230;2023-01-06T08:18:33;100824.34;;;18.26;50.00
53550;BME280;39438;53.076;-1.230;2023-01-06T08:20:59;100837.13;;;18.37;50.22
53550;BME280;39438;53.076;-1.230;2023-01-06T08:23:26;100838.47;;;18.46;50.54
53550;BME280;39438;53.076;-1.230;2023-01-06T08:26:00;100843.56;;;18.54;50.87
53550;BME280;39438;53.076;-1.230;2023-01-06T08:28:26;100846.19;;;18.61;50.74
53550;BME280;39438;53.076;-1.230;2023-01-06T08:30:52;100854.72;;;18.65;50.96
53550;BME280;39438;53.076;-1.230;2023-01-06T08:33:18;100855.66;;;18.70;50.74
53550;BME280;39438;53.076;-1.230;2023-01-06T08:35:44;100849.50;;;18.63;50.81
53550;BME280;39438;53.076;-1.230;2023-01-06T08:38:12;100849.81;;;18.43;51.25
53550;BME280;39438;53.076;-1.230;2023-01-06T08:40:38;100857.47;;;18.34;51.08
53550;BME280;39438;53.076;-1.230;2023-01-06T08:43:05;100845.88;;;18.27;51.28
53550;BME280;39438;53.076;-1.230;2023-01-06T08:45:31;100850.13;;;18.23;51.90
53550;BME280;39438;53.076;-1.230;2023-01-06T08:47:57;100847.06;;;18.31;51.34
53550;BME280;39438;53.076;-1.230;2023-01-06T08:50:22;100846.28;;;18.42;51.06
53550;BME280;39438;53.076;-1.230;2023-01-06T08:52:48;100852.91;;;18.47;50.70
53550;BME280;39438;53.076;-1.230;2023-01-06T08:55:16;100843.69;;;18.48;50.38
53550;BME280;39438;53.076;-1.230;2023-01-06T08:57:43;100847.22;;;18.48;50.20
53550;BME280;39438;53.076;-1.230;2023-01-06T09:00:11;100840.97;;;18.48;50.08
53550;BME280;39438;53.076;-1.230;2023-01-06T09:02:37;100849.97;;;18.48;50.13
53550;BME280;39438;53.076;-1.230;2023-01-06T09:05:04;100845.34;;;18.49;50.15
53550;BME280;39438;53.076;-1.230;2023-01-06T09:07:31;100847.72;;;18.57;50.22
53550;BME280;39438;53.076;-1.230;2023-01-06T09:09:57;100845.72;;;18.64;50.39
53550;BME280;39438;53.076;-1.230;2023-01-06T09:12:24;100851.88;;;18.71;50.33
53550;BME280;39438;53.076;-1.230;2023-01-06T09:14:50;100855.19;;;18.73;50.43
53550;BME280;39438;53.076;-1.230;2023-01-06T09:17:20;100871.06;;;18.76;50.25
53550;BME280;39438;53.076;-1.230;2023-01-06T09:19:47;100874.38;;;18.78;50.34
53550;BME280;39438;53.076;-1.230;2023-01-06T09:22:12;100870.22;;;18.76;50.13
53550;BME280;39438;53.076;-1.230;2023-01-06T09:24:38;100866.09;;;18.73;50.05
53550;BME280;39438;53.076;-1.230;2023-01-06T09:27:04;100861.94;;;18.71;49.92
53550;BME280;39438;53.076;-1.230;2023-01-06T09:29:30;100856.88;;;18.74;49.99
53550;BME280;39438;53.076;-1.230;2023-01-06T09:31:56;100853.81;;;18.83;49.73
53550;BME280;39438;53.076;-1.230;2023-01-06T09:34:23;100858.78;;;18.86;50.07
53550;BME280;39438;53.076;-1.230;2023-01-06T09:36:51;100855.47;;;18.84;50.01
53550;BME280;39438;53.076;-1.230;2023-01-06T09:39:17;100847.53;;;18.82;50.07
53550;BME280;39438;53.076;-1.230;2023-01-06T09:42:08;100851.91;;;18.83;49.99
53550;BME280;39438;53.076;-1.230;2023-01-06T09:44:45;100848.94;;;18.85;49.95
53550;BME280;39438;53.076;-1.230;2023-01-06T09:47:15;100840.78;;;18.85;49.99
53550;BME280;39438;53.076;-1.230;2023-01-06T09:49:47;100849.56;;;18.87;50.30
53550;BME280;39438;53.076;-1.230;2023-01-06T09:52:20;100849.56;;;18.87;50.19
53550;BME280;39438;53.076;-1.230;2023-01-06T09:54:52;100842.00;;;18.89;50.15
53550;BME280;39438;53.076;-1.230;2023-01-06T09:57:31;100847.91;;;18.86;50.07
53550;BME280;39438;53.076;-1.230;2023-01-06T10:00:03;100855.66;;;18.70;50.54
53550;BME280;39438;53.076;-1.230;2023-01-06T10:02:35;100853.31;;;18.62;50.83
53550;BME280;39438;53.076;-1.230;2023-01-06T10:05:07;100841.69;;;18.55;51.06
53550;BME280;39438;53.076;-1.230;2023-01-06T10:07:45;100858.47;;;18.52;51.54
53550;BME280;39438;53.076;-1.230;2023-01-06T10:10:19;100858.94;;;18.49;52.17
53550;BME280;39438;53.076;-1.230;2023-01-06T10:13:00;100847.22;;;18.60;51.68
53550;BME280;39438;53.076;-1.230;2023-01-06T10:15:33;100855.06;;;18.68;51.63
53550;BME280;39438;53.076;-1.230;2023-01-06T10:18:17;100860.63;;;18.73;51.38
53550;BME280;39438;53.076;-1.230;2023-01-06T10:20:53;100862.91;;;18.76;51.44
53550;BME280;39438;53.076;-1.230;2023-01-06T10:24:00;100863.06;;;18.82;51.16
53550;BME280;39438;53.076;-1.230;2023-01-06T10:26:30;100864.69;;;18.83;50.93
53550;BME280;39438;53.076;-1.230;2023-01-06T10:29:01;100868.00;;;18.85;50.92
53550;BME280;39438;53.076;-1.230;2023-01-06T10:31:32;100877.63;;;18.87;51.13
53550;BME280;39438;53.076;-1.230;2023-01-06T10:34:01;100874.66;;;18.89;51.04
53550;BME280;39438;53.076;-1.230;2023-01-06T10:36:34;100875.84;;;18.93;50.89
53550;BME280;39438;53.076;-1.230;2023-01-06T10:39:08;100867.66;;;18.93;50.77
53550;BME280;39438;53.076;-1.230;2023-01-06T10:41:42;100868.50;;;18.93;50.79
53550;BME280;39438;53.076;-1.230;2023-01-06T10:44:17;100869.69;;;18.97;50.83
53550;BME280;39438;53.076;-1.230;2023-01-06T10:46:45;100857.50;;;19.00;50.61
53550;BME280;39438;53.076;-1.230;2023-01-06T10:49:15;100861.38;;;19.04;50.73
53550;BME280;39438;53.076;-1.230;2023-01-06T10:51:50;100863.78;;;19.12;50.62
53550;BME280;39438;53.076;-1.230;2023-01-06T10:54:21;100857.84;;;19.15;50.50
53550;BME280;39438;53.076;-1.230;2023-01-06T10:56:52;100857.84;;;19.15;50.43
53550;BME280;39438;53.076;-1.230;2023-01-06T10:59:21;100861.28;;;18.99;50.92
53550;BME280;39438;53.076;-1.230;2023-01-06T11:01:48;100863.28;;;18.92;51.16
53550;BME280;39438;53.076;-1.230;2023-01-06T11:04:15;100865.19;;;19.03;51.49
53550;BME280;39438;53.076;-1.230;2023-01-06T11:06:47;100853.84;;;19.06;51.61
53550;BME280;39438;53.076;-1.230;2023-01-06T11:09:25;100850.38;;;19.11;51.57
53550;BME280;39438;53.076;-1.230;2023-01-06T11:11:54;100852.88;;;19.12;51.62
53550;BME280;39438;53.076;-1.230;2023-01-06T11:14:25;100845.28;;;19.14;51.50
53550;BME280;39438;53.076;-1.230;2023-01-06T11:16:56;100856.53;;;19.18;51.66
53550;BME280;39438;53.076;-1.230;2023-01-06T11:19:32;100846.47;;;19.18;51.45
53550;BME280;39438;53.076;-1.230;2023-01-06T11:22:00;100849.81;;;19.21;51.44
53550;BME280;39438;53.076;-1.230;2023-01-06T11:24:27;100856.88;;;19.22;51.44
53550;BME280;39438;53.076;-1.230;2023-01-06T11:26:55;100859.38;;;19.23;51.31
53550;BME280;39438;53.076;-1.230;2023-01-06T11:29:30;100851.78;;;19.25;51.47
53550;BME280;39438;53.076;-1.230;2023-01-06T11:32:02;100840.66;;;19.27;51.46
53550;BME280;39438;53.076;-1.230;2023-01-06T11:34:30;100846.69;;;19.29;51.40
53550;BME280;39438;53.076;-1.230;2023-01-06T11:36:58;100853.00;;;19.29;51.08
53550;BME280;39438;53.076;-1.230;2023-01-06T11:39:29;100841.00;;;19.30;51.35
53550;BME280;39438;53.076;-1.230;2023-01-06T11:42:02;100838.28;;;19.30;51.10
53550;BME280;39438;53.076;-1.230;2023-01-06T11:44:31;100840.78;;;19.32;51.11
53550;BME280;39438;53.076;-1.230;2023-01-06T11:47:00;100833.19;;;19.34;50.94
53550;BME280;39438;53.076;-1.230;2023-01-06T11:49:32;100817.66;;;19.34;50.75
53550;BME280;39438;53.076;-1.230;2023-01-06T11:52:01;100807.03;;;19.33;50.82
53550;BME280;39438;53.076;-1.230;2023-01-06T11:54:33;100802.41;;;19.33;50.88
53550;BME280;39438;53.076;-1.230;2023-01-06T11:57:10;100797.78;;;19.34;50.87
53550;BME280;39438;53.076;-1.230;2023-01-06T11:59:58;100789.59;;;19.34;50.64
53550;BME280;39438;53.076;-1.230;2023-01-06T12:02:51;100782.84;;;19.36;50.55
53550;BME280;39438;53.076;-1.230;2023-01-06T12:05:28;100779.28;;;19.36;50.58
53550;BME280;39438;53.076;-1.230;2023-01-06T12:07:58;100789.72;;;19.39;50.44
53550;BME280;39438;53.076;-1.230;2023-01-06T12:10:30;100784.59;;;19.43;50.53
53550;BME280;39438;53.076;-1.230;2023-01-06T12:12:58;100786.00;;;19.45;50.28
53550;BME280;39438;53.076;-1.230;2023-01-06T12:15:28;100773.38;;;19.27;50.63
53550;BME280;39438;53.076;-1.230;2023-01-06T12:17:59;100773.34;;;18.87;50.90
53550;BME280;39438;53.076;-1.230;2023-01-06T12:20:29;100777.34;;;18.96;51.15
53550;BME280;39438;53.076;-1.230;2023-01-06T12:22:59;100776.38;;;19.02;50.69
53550;BME280;39438;53.076;-1.230;2023-01-06T12:25:35;100786.81;;;19.05;50.17
53550;BME280;39438;53.076;-1.230;2023-01-06T12:28:04;100778.66;;;19.05;50.07
53550;BME280;39438;53.076;-1.230;2023-01-06T12:30:36;100776.97;;;19.04;49.84
53550;BME280;39438;53.076;-1.230;2023-01-06T12:33:11;100778.06;;;19.03;49.73
53550;BME280;39438;53.076;-1.230;2023-01-06T12:35:42;100779.69;;;19.04;49.75
53550;BME280;39438;53.076;-1.230;2023-01-06T12:38:16;100788.47;;;19.06;49.57
53550;BME280;39438;53.076;-1.230;2023-01-06T12:40:53;100778.03;;;18.68;52.17
53550;BME280;39438;53.076;-1.230;2023-01-06T12:43:22;100776.41;;;18.55;52.70
53550;BME280;39438;53.076;-1.230;2023-01-06T12:45:53;100777.22;;;18.55;52.92
53550;BME280;39438;53.076;-1.230;2023-01-06T12:48:26;100774.25;;;18.57;52.95
53550;BME280;39438;53.076;-1.230;2023-01-06T12:50:59;100775.44;;;18.85;52.19
53550;BME280;39438;53.076;-1.230;2023-01-06T12:53:32;100761.09;;;19.25;50.76
53550;BME280;39438;53.076;-1.230;2023-01-06T12:56:14;100769.19;;;19.48;50.38